Time;durP1;ratioP1;P1;durP2;ratioP2;P2;SDS_P1;SDS_P2;PMS_P1;PMS_P2;Temp;Humidity;BMP_temperature;BMP_pressure;BME280_temperature;BME280_humidity;BME280_pressure;Samples;Min_cycle;Max_cycle;Signal;HPM_P1;HPM_P2
2021/04/21 00:00:06;;;;;;;23.02;14.90;;;;;;;14.50;51.46;100697.47;5033593;28;20075;-87
2021/04/21 00:02:33;;;;;;;21.30;14.73;;;;;;;14.58;51.22;100687.16;5033705;28;20033;-87
2021/04/21 00:04:59;;;;;;;24.02;13.60;;;;;;;14.68;50.04;100686.28;5033345;28;20013;-87
2021/04/21 00:07:25;;;;;;;21.77;14.45;;;;;;;14.56;50.97;100687.28;5031933;28;20132;-87
2021/04/21 00:09:52;;;;;;;20.45;14.57;;;;;;;14.72;50.48;100696.63;5032392;28;20348;-88
2021/04/21 00:12:18;;;;;;;19.77;14.23;;;;;;;14.78;50.76;100696.13;5034112;28;20475;-87
2021/04/21 00:14:45;;;;;;;21.92;15.20;;;;;;;14.64;51.21;100691.94;5032992;28;20120;-88
2021/04/21 00:17:11;;;;;;;21.45;14.52;;;;;;;14.88;50.58;100697.06;5033469;28;20098;-88
2021/04/21 00:19:38;;;;;;;23.20;14.70;;;;;;;14.72;50.78;100692.16;5053251;28;20414;-88
2021/04/21 00:22:06;;;;;;;27.15;15.30;;;;;;;14.66;50.94;100688.22;5052937;28;20024;-88
2021/04/21 00:24:35;;;;;;;20.92;14.18;;;;;;;14.57;51.18;100686.31;5052844;28;20025;-87
2021/04/21 00:27:01;;;;;;;26.05;15.18;;;;;;;14.61;50.70;100687.75;5052996;28;20025;-87
2021/04/21 00:29:29;;;;;;;20.98;14.60;;;;;;;14.65;50.20;100690.97;5052711;28;20025;-87
2021/04/21 00:31:57;;;;;;;20.90;13.77;;;;;;;14.60;50.70;100694.00;5067841;28;20032;-87
2021/04/21 00:34:24;;;;;;;22.98;14.38;;;;;;;14.60;49.96;100683.44;5052631;28;20133;-88
2021/04/21 00:36:53;;;;;;;18.30;13.98;;;;;;;14.72;49.89;100686.88;5053215;28;20024;-87
2021/04/21 00:39:20;;;;;;;22.02;13.98;;;;;;;14.47;50.50;100696.75;5052711;28;20017;-87
2021/04/21 00:41:58;;;;;;;19.58;13.60;;;;;;;14.56;51.03;100700.50;5051718;28;20104;-87
2021/04/21 00:44:33;;;;;;;20.80;13.73;;;;;;;14.52;51.12;100703.47;5052493;28;20017;-87
2021/04/21 00:47:05;;;;;;;21.25;14.13;;;;;;;14.20;52.00;100702.41;5049547;28;20389;-87
2021/04/21 00:49:46;;;;;;;26.10;16.08;;;;;;;14.18;51.94;100699.06;5033724;28;20113;-87
2021/04/21 00:52:17;;;;;;;23.85;16.15;;;;;;;13.94;52.06;100704.47;5032522;28;20034;-87
2021/04/21 00:54:55;;;;;;;23.42;13.85;;;;;;;13.56;53.21;100707.38;5032526;28;20083;-87
2021/04/21 00:57:32;;;;;;;20.77;13.68;;;;;;;13.40;55.04;100705.88;5032359;28;20088;-87
2021/04/21 01:00:27;;;;;;;19.70;14.00;;;;;;;13.45;54.90;100701.13;5032429;28;20029;-87
2021/04/21 01:02:56;;;;;;;20.33;13.80;;;;;;;13.42;55.49;100703.16;5038777;28;20125;-87
2021/04/21 01:05:25;;;;;;;20.65;14.68;;;;;;;13.37;55.47;100692.94;5052032;28;20028;-87
2021/04/21 01:07:56;;;;;;;18.90;13.63;;;;;;;13.42;55.72;100703.97;5052100;28;20025;-87
2021/04/21 01:10:26;;;;;;;19.23;13.97;;;;;;;13.45;55.98;100698.47;5052138;28;20100;-87
2021/04/21 01:12:53;;;;;;;18.75;12.80;;;;;;;13.43;56.06;100704.84;5052018;28;20444;-86
2021/04/21 01:15:20;;;;;;;16.75;12.77;;;;;;;13.36;56.43;100699.16;5050884;28;20036;-87
2021/04/21 01:17:51;;;;;;;21.35;13.80;;;;;;;13.28;56.54;100706.78;5043407;28;20386;-87
2021/04/21 01:20:26;;;;;;;20.25;13.55;;;;;;;13.34;56.43;100716.91;5032094;28;20049;-87
2021/04/21 01:23:07;;;;;;;20.77;14.98;;;;;;;13.34;56.66;100711.63;5032142;28;20025;-87
2021/04/21 01:25:55;;;;;;;17.42;13.45;;;;;;;13.31;56.99;100708.38;5031932;28;20021;-87
2021/04/21 01:28:24;;;;;;;18.77;13.10;;;;;;;13.32;56.92;100705.63;5032233;28;20030;-87
2021/04/21 01:30:51;;;;;;;20.17;13.05;;;;;;;13.35;56.56;100712.47;5032303;28;20057;-87
2021/04/21 01:33:20;;;;;;;22.00;13.98;;;;;;;13.36;56.42;100712.34;5033107;28;20104;-87
2021/04/21 01:36:04;;;;;;;20.50;13.93;;;;;;;13.27;56.41;100711.22;5030986;28;20083;-87
2021/04/21 01:38:32;;;;;;;22.52;14.20;;;;;;;13.34;56.40;100724.81;5031871;28;20105;-86
2021/04/21 01:41:01;;;;;;;18.90;12.52;;;;;;;13.28;56.57;100726.06;5031745;28;20045;-87
2021/04/21 01:43:33;;;;;;;16.90;13.30;;;;;;;13.29;56.37;100721.66;5031809;28;20084;-86
2021/04/21 01:46:01;;;;;;;24.02;14.25;;;;;;;13.33;56.67;100727.56;5031758;28;20029;-86
2021/04/21 01:48:28;;;;;;;22.35;15.70;;;;;;;13.33;56.39;100724.91;5048525;28;20429;-87
2021/04/21 01:50:54;;;;;;;21.92;14.38;;;;;;;13.22;56.84;100723.91;5051675;28;20028;-87
2021/04/21 01:53:25;;;;;;;24.40;15.05;;;;;;;13.25;56.92;100726.31;5054127;28;20025;-87
2021/04/21 01:55:57;;;;;;;18.88;14.98;;;;;;;13.89;54.78;100720.63;5054506;28;20029;-87
2021/04/21 01:58:33;;;;;;;28.48;16.67;;;;;;;13.95;54.15;100713.22;5055814;28;20059;-87
2021/04/21 02:01:02;;;;;;;27.20;15.75;;;;;;;13.73;54.41;100720.13;5071057;28;20031;-87
2021/04/21 02:03:36;;;;;;;23.67;15.88;;;;;;;13.65;54.87;100720.72;5055120;28;20033;-87
2021/04/21 02:06:13;;;;;;;22.05;15.02;;;;;;;13.43;55.14;100716.22;5035686;28;20065;-87
2021/04/21 02:09:07;;;;;;;26.52;17.15;;;;;;;13.21;56.45;100724.00;5035553;28;20029;-87
2021/04/21 02:11:36;;;;;;;26.77;16.38;;;;;;;12.72;57.85;100719.69;5035468;28;20053;-87
2021/04/21 02:14:10;;;;;;;22.73;14.82;;;;;;;13.42;55.39;100722.44;5035312;28;20111;-86
2021/04/21 02:16:57;;;;;;;25.08;15.43;;;;;;;12.93;56.95;100725.19;5035927;28;20116;-86
2021/04/21 02:19:31;;;;;;;20.65;15.27;;;;;;;13.04;56.63;100728.72;5033982;28;20053;-87
2021/04/21 02:22:21;;;;;;;23.52;15.68;;;;;;;13.52;55.10;100732.31;5035335;28;20064;-87
2021/04/21 02:25:12;;;;;;;21.55;15.32;;;;;;;13.58;54.58;100737.13;5034252;28;20029;-87
2021/04/21 02:28:16;;;;;;;23.83;15.52;;;;;;;13.60;54.91;100736.03;5035271;28;20026;-87
2021/04/21 02:30:53;;;;;;;25.85;15.90;;;;;;;13.53;54.97;100729.56;5027659;28;20069;-87
2021/04/21 02:33:37;;;;;;;24.48;16.65;;;;;;;13.44;55.24;100727.59;5056295;28;20029;-86
2021/04/21 02:36:12;;;;;;;22.98;16.48;;;;;;;13.57;54.30;100740.72;5060658;28;20029;-87
2021/04/21 02:38:53;;;;;;;22.05;15.40;;;;;;;13.53;54.59;100739.28;5061136;28;20059;-87
2021/04/21 02:41:34;;;;;;;22.80;15.60;;;;;;;13.50;54.67;100740.34;5061044;28;20056;-87
2021/04/21 02:44:14;;;;;;;20.83;14.60;;;;;;;13.58;54.40;100734.47;5060620;28;20025;-87
2021/04/21 02:47:05;;;;;;;21.95;15.65;;;;;;;13.53;54.52;100734.00;5059645;28;20128;-87
2021/04/21 02:49:40;;;;;;;25.17;15.45;;;;;;;13.60;54.59;100743.13;5080069;28;20052;-86
2021/04/21 02:52:31;;;;;;;24.67;16.65;;;;;;;13.36;54.54;100733.44;5080269;28;20009;-86
2021/04/21 02:55:24;;;;;;;23.75;15.90;;;;;;;13.35;54.65;100739.69;5078049;28;20015;-87
2021/04/21 02:57:54;;;;;;;25.15;17.23;;;;;;;12.99;55.36;100733.47;5079234;28;20044;-87
2021/04/21 03:00:28;;;;;;;20.95;16.15;;;;;;;13.00;55.32;100727.28;5079076;28;20036;-87
2021/04/21 03:03:29;;;;;;;22.38;15.85;;;;;;;13.21;54.82;100734.56;5075675;28;20021;-87
2021/04/21 03:06:09;;;;;;;23.15;16.20;;;;;;;13.63;52.75;100724.44;5021542;28;20030;-86
2021/04/21 03:08:46;;;;;;;22.25;15.05;;;;;;;12.54;55.69;100738.50;5075351;28;20032;-87
2021/04/21 03:11:23;;;;;;;20.35;14.98;;;;;;;12.74;56.01;100733.56;5076649;28;20026;-86
2021/04/21 03:14:11;;;;;;;21.67;16.42;;;;;;;12.65;55.99;100728.03;5078935;28;20027;-86
2021/04/21 03:16:41;;;;;;;21.30;16.73;;;;;;;12.18;57.41;100739.28;5078098;28;20005;-87
2021/04/21 03:19:08;;;;;;;23.85;16.55;;;;;;;12.02;57.92;100727.16;5076172;28;20162;-86
2021/04/21 03:21:41;;;;;;;21.10;17.08;;;;;;;12.04;57.95;100727.06;5071556;28;20033;-86
2021/04/21 03:24:12;;;;;;;20.80;15.77;;;;;;;11.94;57.84;100728.66;5070227;28;20036;-86
2021/04/21 03:26:41;;;;;;;22.90;16.20;;;;;;;11.92;58.44;100728.75;5064274;28;20025;-85
2021/04/21 03:29:12;;;;;;;23.55;17.38;;;;;;;11.87;58.57;100730.84;5047072;28;20021;-86
2021/04/21 03:31:40;;;;;;;25.85;17.73;;;;;;;11.78;57.97;100732.28;5040518;28;20021;-85
2021/04/21 03:34:12;;;;;;;22.75;17.15;;;;;;;11.77;58.76;100727.13;5036683;28;20156;-86
2021/04/21 03:36:38;;;;;;;22.98;16.58;;;;;;;11.75;58.45;100739.53;5035721;28;20029;-87
2021/04/21 03:39:05;;;;;;;24.40;16.35;;;;;;;11.73;59.02;100737.03;5034675;28;20030;-87
2021/04/21 03:41:30;;;;;;;21.45;16.73;;;;;;;12.37;57.10;100726.50;5053022;28;20365;-86
2021/04/21 03:43:56;;;;;;;22.48;16.45;;;;;;;12.22;56.98;100735.47;5052972;28;20057;-86
2021/04/21 03:46:23;;;;;;;24.98;17.13;;;;;;;12.41;56.52;100735.03;5054604;28;20048;-86
2021/04/21 03:48:49;;;;;;;26.35;19.13;;;;;;;12.32;56.25;100740.94;5054559;28;20100;-86
2021/04/21 03:51:17;;;;;;;29.92;20.00;;;;;;;12.23;57.26;100739.81;5054619;28;20090;-86
2021/04/21 03:53:43;;;;;;;28.52;19.42;;;;;;;12.39;56.29;100742.22;5054010;28;20108;-85
2021/04/21 03:56:16;;;;;;;27.23;19.58;;;;;;;12.30;56.39;100747.19;5035345;28;20025;-86
2021/04/21 03:58:43;;;;;;;28.27;20.13;;;;;;;12.45;56.45;100747.88;5034396;28;20350;-86
2021/04/21 04:01:18;;;;;;;29.15;19.92;;;;;;;12.46;56.35;100730.28;5034453;28;20028;-86
2021/04/21 04:03:55;;;;;;;29.42;20.40;;;;;;;12.54;56.19;100740.28;5033254;28;20044;-86
2021/04/21 04:06:23;;;;;;;32.50;22.58;;;;;;;12.08;57.04;100739.06;5034146;28;20032;-86
2021/04/21 04:08:57;;;;;;;28.98;21.10;;;;;;;12.33;56.53;100732.94;5034401;28;20071;-86
2021/04/21 04:11:27;;;;;;;25.10;19.52;;;;;;;12.68;55.67;100738.34;5053803;28;20028;-86
2021/04/21 04:13:58;;;;;;;31.48;22.27;;;;;;;12.79;55.08;100734.94;5053897;28;20108;-86
2021/04/21 04:16:25;;;;;;;28.00;19.70;;;;;;;12.03;56.96;100744.66;5053846;28;20021;-86
2021/04/21 04:18:53;;;;;;;32.22;21.73;;;;;;;11.42;59.56;100752.22;5053842;28;20471;-85
2021/04/21 04:21:19;;;;;;;29.95;20.17;;;;;;;11.34;60.07;100748.44;5054044;28;20364;-86
2021/04/21 04:23:47;;;;;;;35.85;21.23;;;;;;;11.78;58.69;100750.69;5053786;28;20115;-86
2021/04/21 04:26:15;;;;;;;31.08;20.80;;;;;;;11.87;58.42;100742.19;5034483;28;20437;-86
2021/04/21 04:28:41;;;;;;;28.85;20.85;;;;;;;11.88;58.17;100746.50;5033871;28;20017;-86
2021/04/21 04:31:07;;;;;;;27.25;20.23;;;;;;;11.77;57.83;100740.28;5033465;28;20423;-86
2021/04/21 04:33:33;;;;;;;27.92;20.38;;;;;;;11.79;58.25;100741.88;5032835;28;20029;-86
2021/04/21 04:36:00;;;;;;;28.38;20.95;;;;;;;11.63;58.44;100739.44;5032819;28;20026;-86
2021/04/21 04:38:26;;;;;;;27.13;19.50;;;;;;;11.64;58.35;100750.78;5033183;28;20391;-86
2021/04/21 04:40:53;;;;;;;27.95;20.77;;;;;;;11.63;58.61;100746.47;5046935;28;20029;-86
2021/04/21 04:43:21;;;;;;;25.95;19.33;;;;;;;11.07;60.11;100750.09;5052546;28;20071;-85
2021/04/21 04:45:50;;;;;;;32.60;23.85;;;;;;;11.61;58.74;100746.59;5051123;28;20435;-85
2021/04/21 04:48:21;;;;;;;34.72;24.58;;;;;;;11.78;57.85;100745.44;5052343;28;20360;-85
2021/04/21 04:50:48;;;;;;;32.35;23.00;;;;;;;11.79;57.69;100739.25;5052591;28;20051;-86
2021/04/21 04:53:16;;;;;;;33.60;23.92;;;;;;;11.07;60.11;100747.47;5052292;28;20501;-85
2021/04/21 04:55:43;;;;;;;31.65;23.23;;;;;;;11.35;59.71;100756.19;5046026;28;20360;-85
2021/04/21 04:58:11;;;;;;;31.85;23.58;;;;;;;11.60;58.81;100759.84;5032062;28;20384;-86
2021/04/21 05:00:36;;;;;;;31.05;22.45;;;;;;;11.76;58.11;100764.91;5032352;28;20582;-85
2021/04/21 05:03:21;;;;;;;29.65;22.13;;;;;;;10.92;61.33;100766.88;5033015;28;20117;-86
2021/04/21 05:05:52;;;;;;;31.45;21.48;;;;;;;10.79;61.91;100773.84;5032281;28;20056;-86
2021/04/21 05:08:19;;;;;;;27.90;20.15;;;;;;;10.70;62.44;100764.72;5032309;28;20108;-86
2021/04/21 05:11:05;;;;;;;29.50;19.67;;;;;;;11.39;60.03;100773.44;5048787;28;20040;-86
2021/04/21 05:13:39;;;;;;;34.08;22.23;;;;;;;11.60;58.77;100770.38;5052005;28;20021;-86
2021/04/21 05:16:04;;;;;;;38.80;23.88;;;;;;;10.98;61.11;100774.34;5052047;28;20025;-86
2021/04/21 05:18:38;;;;;;;37.88;23.20;;;;;;;11.20;60.33;100786.13;5052318;28;20029;-86
2021/04/21 05:21:28;;;;;;;29.65;21.77;;;;;;;10.79;61.97;100776.47;5050884;28;20127;-86
2021/04/21 05:24:23;;;;;;;33.35;23.60;;;;;;;10.76;63.16;100784.50;5047984;28;20544;-86
2021/04/21 05:27:26;;;;;;;39.22;22.88;;;;;;;10.68;63.16;100785.00;5031600;28;20546;-86
2021/04/21 05:30:28;;;;;;;32.30;23.17;;;;;;;10.77;63.06;100791.47;5031953;28;20113;-86
2021/04/21 05:33:21;;;;;;;56.08;37.15;;;;;;;10.83;65.71;100791.09;5030520;28;20506;-86
2021/04/21 05:36:05;;;;;;;66.60;37.88;;;;;;;10.90;66.72;100800.28;5032854;28;20041;-85
2021/04/21 05:39:08;;;;;;;61.47;38.80;;;;;;;10.96;67.24;100797.25;5046932;28;20082;-86
2021/04/21 05:41:45;;;;;;;;;;;;;;;11.08;67.50;100796.47;5033646;28;20037;-86
2021/04/21 05:44:53;;;;;;;60.72;38.22;;;;;;;11.34;66.53;100798.38;5047934;28;20444;-87
2021/04/21 05:47:55;;;;;;;67.50;40.03;;;;;;;11.27;66.59;100801.38;5051421;28;20055;-86
2021/04/21 05:50:33;;;;;;;64.35;38.95;;;;;;;11.60;65.36;100817.69;5048487;28;20853;-86
2021/04/21 05:53:16;;;;;;;63.35;41.35;;;;;;;11.55;65.45;100817.16;5036154;28;20385;-86
2021/04/21 05:56:16;;;;;;;61.88;41.28;;;;;;;11.75;64.46;100816.69;5044819;28;20026;-86
2021/04/21 05:59:08;;;;;;;62.88;40.88;;;;;;;11.46;65.29;100819.44;5041173;28;20116;-86
2021/04/21 06:01:36;;;;;;;66.45;39.55;;;;;;;11.51;65.39;100806.84;5046631;28;20068;-87
2021/04/21 06:04:02;;;;;;;57.53;37.78;;;;;;;11.63;65.11;100820.97;5033769;28;20117;-87
2021/04/21 06:06:28;;;;;;;58.00;38.30;;;;;;;11.65;64.38;100824.34;5036509;28;20033;-87
2021/04/21 06:08:54;;;;;;;60.58;37.15;;;;;;;11.87;64.14;100828.19;5037161;28;20107;-87
2021/04/21 06:11:30;;;;;;;56.20;38.92;;;;;;;11.74;63.87;100814.16;5043875;28;20387;-87
2021/04/21 06:14:01;;;;;;;53.10;35.45;;;;;;;11.88;63.55;100828.06;5042489;28;20464;-86
2021/04/21 06:16:28;;;;;;;60.40;38.28;;;;;;;11.88;63.29;100833.34;5039833;28;20029;-86
2021/04/21 06:18:59;;;;;;;66.90;38.90;;;;;;;11.78;63.92;100841.94;5046528;28;20028;-84
2021/04/21 06:21:27;;;;;;;59.60;38.45;;;;;;;11.91;63.41;100848.13;5049391;28;20317;-85
2021/04/21 06:23:53;;;;;;;55.47;37.22;;;;;;;12.21;62.48;100842.56;5038204;28;20151;-85
2021/04/21 06:26:21;;;;;;;57.63;37.53;;;;;;;12.18;62.44;100849.84;5037300;28;20078;-85
2021/04/21 06:29:08;;;;;;;53.38;36.80;;;;;;;12.35;61.90;100851.34;5043116;28;20028;-85
2021/04/21 06:31:37;;;;;;;55.30;34.78;;;;;;;12.39;61.41;100843.13;5033650;28;20030;-85
2021/04/21 06:34:04;;;;;;;57.40;34.80;;;;;;;12.36;61.51;100848.59;5038532;28;20486;-85
2021/04/21 06:36:44;;;;;;;53.47;34.15;;;;;;;12.51;61.16;100851.97;5040182;28;20116;-85
2021/04/21 06:39:12;;;;;;;50.47;35.22;;;;;;;12.73;61.10;100848.69;5041767;28;20026;-85
2021/04/21 06:41:38;;;;;;;51.10;34.70;;;;;;;13.25;58.52;100857.31;5047003;28;20116;-84
2021/04/21 06:44:04;;;;;;;54.78;36.75;;;;;;;13.07;58.74;100865.59;5047429;28;20585;-85
2021/04/21 06:46:29;;;;;;;51.92;35.65;;;;;;;13.53;57.33;100858.84;5036833;28;20033;-85
2021/04/21 06:48:57;;;;;;;55.60;35.92;;;;;;;13.60;57.17;100860.03;5047472;28;20032;-85
2021/04/21 06:51:25;;;;;;;54.42;35.58;;;;;;;13.57;56.34;100862.94;5055188;28;20118;-84
2021/04/21 06:53:53;;;;;;;51.58;35.55;;;;;;;13.55;56.83;100869.28;5055575;28;20067;-85
2021/04/21 06:56:27;;;;;;;51.53;34.00;;;;;;;13.60;56.80;100877.69;5054562;28;20025;-84
2021/04/21 06:58:53;;;;;;;53.05;33.55;;;;;;;13.79;56.08;100872.75;5048356;28;20495;-85
2021/04/21 07:01:24;;;;;;;51.38;34.60;;;;;;;14.17;55.15;100879.59;5045542;28;20033;-85
2021/04/21 07:03:49;;;;;;;54.05;36.22;;;;;;;14.02;55.08;100883.38;5037668;28;20507;-85
2021/04/21 07:06:15;;;;;;;56.70;36.17;;;;;;;14.04;55.42;100886.75;5044568;28;20090;-84
2021/04/21 07:08:40;;;;;;;48.67;34.63;;;;;;;14.41;54.11;100883.97;5036951;28;20044;-85
2021/04/21 07:11:09;;;;;;;54.58;37.97;;;;;;;14.64;53.73;100887.53;5037798;28;20506;-86
2021/04/21 07:13:44;;;;;;;55.63;36.47;;;;;;;15.10;52.95;100897.13;5038084;28;20041;-85
2021/04/21 07:16:20;;;;;;;57.17;37.35;;;;;;;15.91;50.83;100891.56;5047717;28;20056;-86
2021/04/21 07:18:53;;;;;;;52.15;36.75;;;;;;;16.59;48.75;100889.38;5044640;28;20029;-86
2021/04/21 07:21:19;;;;;;;53.03;35.25;;;;;;;17.04;47.85;100889.00;5047905;28;20021;-86
2021/04/21 07:23:52;;;;;;;53.03;35.30;;;;;;;17.71;46.02;100895.44;5047735;28;20024;-87
2021/04/21 07:26:19;;;;;;;58.80;38.08;;;;;;;18.05;44.91;100897.75;5038249;28;20052;-84
2021/04/21 07:28:45;;;;;;;50.47;35.58;;;;;;;18.69;43.85;100895.38;5040942;28;20026;-85
2021/04/21 07:31:14;;;;;;;47.85;34.38;;;;;;;19.22;42.66;100895.56;5049217;28;20029;-86
2021/04/21 07:33:45;;;;;;;52.25;38.00;;;;;;;19.61;41.64;100897.19;5056988;28;20479;-86
2021/04/21 07:36:19;;;;;;;53.43;36.23;;;;;;;20.25;40.94;100907.75;5054404;28;20039;-85
2021/04/21 07:38:47;;;;;;;58.80;37.45;;;;;;;20.77;39.58;100911.31;5053605;28;20686;-86
2021/04/21 07:41:14;;;;;;;54.80;38.50;;;;;;;20.91;38.17;100906.34;5040048;28;20493;-85
2021/04/21 07:43:43;;;;;;;52.00;37.55;;;;;;;20.90;38.80;100908.19;5046650;28;20043;-86
2021/04/21 07:46:21;;;;;;;54.08;37.30;;;;;;;21.05;38.00;100910.25;5051502;28;20107;-86
2021/04/21 07:48:49;;;;;;;48.67;36.33;;;;;;;21.59;36.89;100903.59;5045350;28;20029;-86
2021/04/21 07:51:19;;;;;;;46.38;35.35;;;;;;;22.07;36.70;100911.00;5042885;28;20466;-87
2021/04/21 07:53:52;;;;;;;47.60;35.80;;;;;;;22.21;35.98;100904.97;5037095;28;20438;-87
2021/04/21 07:56:20;;;;;;;48.53;35.80;;;;;;;22.25;36.07;100910.84;5038901;28;20033;-86
2021/04/21 07:58:46;;;;;;;47.63;35.13;;;;;;;22.56;34.53;100908.31;5048298;28;20093;-86
2021/04/21 08:01:11;;;;;;;54.63;37.75;;;;;;;22.48;34.87;100917.19;5032332;28;20440;-86
2021/04/21 08:03:38;;;;;;;57.50;40.70;;;;;;;22.21;34.75;100920.19;5041867;22;20049;-84
2021/04/21 08:06:03;;;;;;;59.35;42.30;;;;;;;22.90;34.26;100916.06;5031293;28;20025;-87
2021/04/21 08:08:30;;;;;;;56.00;40.83;;;;;;;22.72;34.25;100921.66;5025617;28;20453;-87
2021/04/21 08:10:56;;;;;;;55.78;39.85;;;;;;;22.74;34.38;100921.47;5026951;28;20030;-85
2021/04/21 08:13:54;;;;;;;51.85;39.53;;;;;;;23.54;33.28;100934.75;5021605;28;20853;-84
2021/04/21 08:16:24;;;;;;;51.60;36.75;;;;;;;24.46;31.37;100928.53;5010843;28;20057;-86
2021/04/21 08:18:50;;;;;;;47.83;36.35;;;;;;;24.13;31.10;100926.16;5020830;28;20059;-87
2021/04/21 08:21:39;;;;;;;53.22;38.55;;;;;;;24.52;31.22;100927.81;5028943;28;20029;-84
2021/04/21 08:24:12;;;;;;;51.72;38.67;;;;;;;24.21;31.56;100924.38;5015874;28;20060;-86
2021/04/21 08:26:37;;;;;;;51.88;39.20;;;;;;;24.67;31.05;100930.53;5023208;28;20021;-86
2021/04/21 08:29:03;;;;;;;49.95;37.28;;;;;;;24.86;30.41;100931.00;5022647;28;20496;-87
2021/04/21 08:31:29;;;;;;;46.00;36.20;;;;;;;25.27;29.69;100930.53;5023671;28;20032;-85
2021/04/21 08:33:55;;;;;;;47.17;35.85;;;;;;;25.54;29.88;100929.00;5024310;28;20034;-86
2021/04/21 08:36:21;;;;;;;48.00;36.70;;;;;;;25.79;29.24;100924.09;5021559;28;20034;-86
2021/04/21 08:38:47;;;;;;;51.50;37.38;;;;;;;26.45;28.16;100928.41;5024614;28;20037;-87
2021/04/21 08:41:16;;;;;;;45.88;36.50;;;;;;;26.25;28.80;100931.75;5017508;28;20026;-86
2021/04/21 08:43:45;;;;;;;43.25;33.42;;;;;;;26.74;27.52;100926.53;5023811;28;20511;-86
2021/04/21 08:46:12;;;;;;;42.13;33.15;;;;;;;26.80;27.88;100934.66;5024104;28;20498;-86
2021/04/21 08:48:38;;;;;;;42.75;32.15;;;;;;;26.60;27.63;100936.38;5027371;28;20060;-86
2021/04/21 08:51:05;;;;;;;44.65;32.83;;;;;;;26.88;27.43;100929.13;5030812;28;20083;-86
2021/04/21 08:53:38;;;;;;;39.88;31.15;;;;;;;27.04;27.03;100936.03;5022847;28;20059;-86
2021/04/21 08:56:05;;;;;;;37.40;30.65;;;;;;;26.29;27.79;100935.72;5024991;28;20248;-86
2021/04/21 08:58:32;;;;;;;39.10;30.33;;;;;;;25.67;29.32;100941.72;5025055;28;20365;-86
2021/04/21 09:00:59;;;;;;;40.67;31.13;;;;;;;25.99;28.99;100940.44;5017283;28;20380;-86
2021/04/21 09:03:25;;;;;;;44.65;31.75;;;;;;;25.01;30.08;100953.31;5024231;28;20040;-86
2021/04/21 09:05:51;;;;;;;38.53;31.20;;;;;;;25.15;30.13;100962.38;5020758;28;20492;-86
2021/04/21 09:08:20;;;;;;;40.78;29.73;;;;;;;25.32;30.21;100950.44;5029169;28;20026;-86
2021/04/21 09:10:46;;;;;;;44.00;33.00;;;;;;;24.01;31.91;100958.94;5028851;28;20029;-86
2021/04/21 09:13:13;;;;;;;43.83;33.28;;;;;;;23.94;31.81;100974.91;5026133;28;20084;-86
2021/04/21 09:15:38;;;;;;;42.38;32.35;;;;;;;23.53;32.21;100969.75;5015773;28;20034;-86
2021/04/21 09:18:04;;;;;;;48.22;35.08;;;;;;;23.48;32.52;100972.13;5017279;28;20380;-87
2021/04/21 09:20:29;;;;;;;43.70;33.20;;;;;;;24.20;31.90;100976.41;5030966;28;20526;-87
2021/04/21 09:23:14;;;;;;;45.60;33.97;;;;;;;24.17;31.71;100976.75;5030110;28;20356;-87
2021/04/21 09:25:43;;;;;;;48.13;35.80;;;;;;;23.62;32.75;100978.56;5018382;28;20049;-87
2021/04/21 09:28:09;;;;;;;46.30;32.80;;;;;;;24.04;32.48;100982.72;5030615;28;20104;-88
2021/04/21 09:30:36;;;;;;;42.78;31.17;;;;;;;23.93;33.08;100983.97;5028214;28;20390;-87
2021/04/21 09:33:04;;;;;;;45.40;33.53;;;;;;;23.82;32.33;100993.25;5031422;28;20112;-88
2021/04/21 09:35:38;;;;;;;44.05;32.72;;;;;;;23.87;32.59;100990.03;5023703;28;20033;-87
2021/04/21 09:38:06;;;;;;;44.72;34.42;;;;;;;23.34;33.05;100998.66;5022150;28;20087;-87
2021/04/21 09:40:37;;;;;;;47.65;33.47;;;;;;;23.13;33.74;100993.88;5012469;28;20116;-87
2021/04/21 09:43:04;;;;;;;41.45;32.72;;;;;;;23.53;32.79;100993.88;5025957;28;20033;-87
2021/04/21 09:45:44;;;;;;;46.08;34.10;;;;;;;23.71;32.93;100996.28;5020523;28;20057;-87
2021/04/21 09:48:13;;;;;;;41.75;32.33;;;;;;;23.47;33.53;101005.31;5028504;28;20021;-87
2021/04/21 09:50:41;;;;;;;46.95;35.20;;;;;;;23.79;33.25;100998.13;5022555;28;20033;-86
2021/04/21 09:53:21;;;;;;;45.88;33.65;;;;;;;23.99;32.25;100996.66;5027205;28;20484;-87
2021/04/21 09:56:01;;;;;;;44.15;34.05;;;;;;;22.85;34.52;100995.22;5022764;28;20083;-87
2021/04/21 09:58:48;;;;;;;47.50;34.65;;;;;;;21.86;36.12;101002.38;5021548;28;20029;-86
2021/04/21 10:01:27;;;;;;;42.25;31.40;;;;;;;22.66;35.24;101013.34;5021502;28;20073;-87
2021/04/21 10:04:27;;;;;;;48.55;34.25;;;;;;;23.31;34.05;101004.34;5028174;28;20029;-86
2021/04/21 10:06:59;;;;;;;45.10;34.17;;;;;;;22.92;34.47;101012.28;5020395;28;20526;-87
2021/04/21 10:09:32;;;;;;;49.65;33.40;;;;;;;24.37;32.78;101004.78;5009878;28;20546;-87
2021/04/21 10:12:20;;;;;;;43.28;34.63;;;;;;;24.44;32.86;101011.06;5010101;28;20076;-87
2021/04/21 10:14:48;;;;;;;44.33;32.63;;;;;;;25.51;31.16;101007.31;5040251;28;20112;-86
2021/04/21 10:17:14;;;;;;;45.05;35.13;;;;;;;25.29;30.62;101003.72;5028660;28;20033;-86
2021/04/21 10:19:41;;;;;;;43.28;34.15;;;;;;;25.69;30.70;100993.47;5015066;28;20117;-86
2021/04/21 10:22:11;;;;;;;44.38;33.72;;;;;;;25.88;29.68;100997.41;5015358;28;20109;-86
2021/04/21 10:24:37;;;;;;;45.05;34.58;;;;;;;26.08;30.35;101003.84;5024261;28;20042;-86
2021/04/21 10:27:04;;;;;;;44.08;34.25;;;;;;;26.67;29.54;100997.34;5029615;28;20423;-87
2021/04/21 10:29:30;;;;;;;44.42;33.78;;;;;;;27.11;29.09;101003.44;5023259;28;20043;-86
2021/04/21 10:31:57;;;;;;;42.78;30.38;;;;;;;26.95;29.04;101014.53;5025071;28;20116;-87
2021/04/21 10:34:23;;;;;;;39.42;32.67;;;;;;;27.06;28.54;101003.22;5025044;28;20040;-87
2021/04/21 10:36:50;;;;;;;47.30;33.50;;;;;;;26.79;28.88;101013.81;5022997;28;20431;-86
2021/04/21 10:39:34;;;;;;;39.28;32.08;;;;;;;26.96;28.74;101010.81;5025431;28;20037;-86
2021/04/21 10:42:17;;;;;;;40.13;30.55;;;;;;;27.44;28.37;101019.00;5026334;28;20034;-87
2021/04/21 10:44:45;;;;;;;38.55;29.88;;;;;;;27.78;27.81;101019.94;5028043;28;20034;-88
2021/04/21 10:47:23;;;;;;;39.47;29.52;;;;;;;27.96;26.89;101017.50;5017789;28;20476;-86
2021/04/21 10:49:48;;;;;;;37.17;27.60;;;;;;;26.60;27.94;101026.13;5027191;28;20061;-88
2021/04/21 10:52:14;;;;;;;37.10;26.13;;;;;;;27.03;28.05;101017.06;5029598;28;20557;-87
2021/04/21 10:54:40;;;;;;;31.27;25.35;;;;;;;26.38;28.69;101025.25;5015767;28;20488;-86
2021/04/21 10:57:27;;;;;;;33.67;26.55;;;;;;;26.02;29.89;101031.53;5026599;28;20080;-87
2021/04/21 11:00:11;;;;;;;30.02;24.45;;;;;;;26.45;28.39;101030.72;5025970;28;20041;-86
2021/04/21 11:02:39;;;;;;;29.38;23.10;;;;;;;25.87;28.80;101028.00;5028708;28;20025;-87
2021/04/21 11:05:08;;;;;;;31.00;22.15;;;;;;;26.73;27.51;101022.69;5034014;28;20048;-87
2021/04/21 11:07:34;;;;;;;28.15;21.40;;;;;;;26.95;26.89;101026.13;5031197;28;20428;-86
2021/04/21 11:10:00;;;;;;;27.13;21.55;;;;;;;26.17;28.19;101028.78;5021256;28;20041;-86
2021/04/21 11:12:48;;;;;;;23.95;19.35;;;;;;;27.20;26.71;101029.22;5025154;28;20033;-87
2021/04/21 11:15:33;;;;;;;24.55;18.75;;;;;;;27.93;25.64;101022.53;5019887;28;20057;-86
2021/04/21 11:18:07;;;;;;;23.27;19.40;;;;;;;27.03;27.46;101011.69;5021192;28;20053;-87
2021/04/21 11:20:45;;;;;;;26.30;18.88;;;;;;;26.29;28.20;101026.44;5013802;28;20034;-87
2021/04/21 11:23:52;;;;;;;21.50;17.80;;;;;;;26.36;28.02;101027.31;5021332;28;20022;-86
2021/04/21 11:26:27;;;;;;;23.67;16.75;;;;;;;27.33;27.38;101012.31;5026049;28;20033;-87
2021/04/21 11:29:30;;;;;;;23.00;18.45;;;;;;;27.19;26.13;101016.78;5015607;28;20025;-86
2021/04/21 11:31:55;;;;;;;23.13;17.42;;;;;;;27.08;26.43;101012.75;5018507;28;20025;-86
2021/04/21 11:34:31;;;;;;;22.10;16.75;;;;;;;27.34;25.95;101019.34;5018007;28;20053;-86